sensor_id;sensor_type;location;lat;lon;timestamp;P1;durP1;ratioP1;P2;durP2;ratioP2
34805;SDS011;65084;42.196;25.326;2023-05-10T00:01:12;9.82;;;4.30;;
34805;SDS011;65084;42.196;25.326;2023-05-10T00:03:39;6.95;;;4.55;;
34805;SDS011;65084;42.196;25.326;2023-05-10T00:06:07;7.05;;;4.82;;
34805;SDS011;65084;42.196;25.326;2023-05-10T00:08:34;5.78;;;4.53;;
34805;SDS011;65084;42.196;25.326;2023-05-10T00:11:01;6.53;;;5.18;;
34805;SDS011;65084;42.196;25.326;2023-05-10T00:13:30;5.22;;;4.50;;
34805;SDS011;65084;42.196;25.326;2023-05-10T00:15:57;7.47;;;4.55;;
34805;SDS011;65084;42.196;25.326;2023-05-10T00:18:25;12.00;;;4.65;;
34805;SDS011;65084;42.196;25.326;2023-05-10T00:20:52;7.35;;;4.22;;
34805;SDS011;65084;42.196;25.326;2023-05-10T00:23:19;7.50;;;4.30;;
34805;SDS011;65084;42.196;25.326;2023-05-10T00:25:46;5.35;;;4.53;;
34805;SDS011;65084;42.196;25.326;2023-05-10T00:28:14;9.95;;;5.85;;
34805;SDS011;65084;42.196;25.326;2023-05-10T00:30:42;10.77;;;4.47;;
34805;SDS011;65084;42.196;25.326;2023-05-10T00:33:10;8.13;;;4.13;;
34805;SDS011;65084;42.196;25.326;2023-05-10T00:35:37;9.80;;;4.78;;
34805;SDS011;65084;42.196;25.326;2023-05-10T00:38:05;8.40;;;4.35;;
34805;SDS011;65084;42.196;25.326;2023-05-10T00:40:32;5.95;;;4.60;;
34805;SDS011;65084;42.196;25.326;2023-05-10T00:43:00;8.50;;;4.68;;
34805;SDS011;65084;42.196;25.326;2023-05-10T00:45:27;8.80;;;4.68;;
34805;SDS011;65084;42.196;25.326;2023-05-10T00:47:56;10.43;;;4.72;;
34805;SDS011;65084;42.196;25.326;2023-05-10T00:50:24;4.75;;;4.30;;
34805;SDS011;65084;42.196;25.326;2023-05-10T00:52:52;6.47;;;4.03;;
34805;SDS011;65084;42.196;25.326;2023-05-10T00:55:19;7.68;;;5.03;;
34805;SDS011;65084;42.196;25.326;2023-05-10T00:57:47;8.15;;;5.20;;
34805;SDS011;65084;42.196;25.326;2023-05-10T01:00:15;14.98;;;5.45;;
34805;SDS011;65084;42.196;25.326;2023-05-10T01:02:43;7.70;;;4.95;;
34805;SDS011;65084;42.196;25.326;2023-05-10T01:05:12;6.18;;;5.57;;
34805;SDS011;65084;42.196;25.326;2023-05-10T01:07:39;6.90;;;4.13;;
34805;SDS011;65084;42.196;25.326;2023-05-10T01:10:07;6.57;;;4.53;;
34805;SDS011;65084;42.196;25.326;2023-05-10T01:12:36;7.97;;;4.85;;
34805;SDS011;65084;42.196;25.326;2023-05-10T01:15:05;6.35;;;4.78;;
34805;SDS011;65084;42.196;25.326;2023-05-10T01:17:34;11.32;;;5.32;;
34805;SDS011;65084;42.196;25.326;2023-05-10T01:20:02;8.55;;;5.05;;
34805;SDS011;65084;42.196;25.326;2023-05-10T01:22:37;15.23;;;5.47;;
34805;SDS011;65084;42.196;25.326;2023-05-10T01:25:11;5.68;;;5.22;;
34805;SDS011;65084;42.196;25.326;2023-05-10T01:27:47;8.95;;;6.07;;
34805;SDS011;65084;42.196;25.326;2023-05-10T01:33:07;8.25;;;6.80;;
34805;SDS011;65084;42.196;25.326;2023-05-10T01:35:39;17.23;;;8.13;;
34805;SDS011;65084;42.196;25.326;2023-05-10T01:38:11;11.30;;;8.10;;
34805;SDS011;65084;42.196;25.326;2023-05-10T01:40:46;10.15;;;7.32;;
34805;SDS011;65084;42.196;25.326;2023-05-10T01:43:17;9.15;;;7.07;;
34805;SDS011;65084;42.196;25.326;2023-05-10T01:45:47;8.68;;;6.78;;
34805;SDS011;65084;42.196;25.326;2023-05-10T01:48:18;10.63;;;7.20;;
34805;SDS011;65084;42.196;25.326;2023-05-10T01:50:45;9.95;;;6.93;;
34805;SDS011;65084;42.196;25.326;2023-05-10T01:53:13;11.48;;;6.75;;
34805;SDS011;65084;42.196;25.326;2023-05-10T01:55:46;9.93;;;6.03;;
34805;SDS011;65084;42.196;25.326;2023-05-10T01:58:14;6.80;;;5.57;;
34805;SDS011;65084;42.196;25.326;2023-05-10T02:00:42;11.65;;;5.57;;
34805;SDS011;65084;42.196;25.326;2023-05-10T02:03:10;7.25;;;5.40;;
34805;SDS011;65084;42.196;25.326;2023-05-10T02:05:40;7.20;;;5.93;;
34805;SDS011;65084;42.196;25.326;2023-05-10T02:08:09;8.52;;;5.95;;
34805;SDS011;65084;42.196;25.326;2023-05-10T02:10:37;8.63;;;5.65;;
34805;SDS011;65084;42.196;25.326;2023-05-10T02:13:06;11.73;;;5.90;;
34805;SDS011;65084;42.196;25.326;2023-05-10T02:15:34;7.22;;;5.25;;
34805;SDS011;65084;42.196;25.326;2023-05-10T02:18:02;7.18;;;5.70;;
34805;SDS011;65084;42.196;25.326;2023-05-10T02:20:30;7.63;;;5.85;;
34805;SDS011;65084;42.196;25.326;2023-05-10T02:22:59;10.45;;;5.60;;
34805;SDS011;65084;42.196;25.326;2023-05-10T02:25:28;12.35;;;6.28;;
34805;SDS011;65084;42.196;25.326;2023-05-10T02:27:56;7.70;;;5.68;;
34805;SDS011;65084;42.196;25.326;2023-05-10T02:30:24;10.60;;;6.03;;
34805;SDS011;65084;42.196;25.326;2023-05-10T02:32:52;8.60;;;5.68;;
34805;SDS011;65084;42.196;25.326;2023-05-10T02:35:19;8.75;;;5.78;;
34805;SDS011;65084;42.196;25.326;2023-05-10T02:37:47;7.18;;;5.60;;
34805;SDS011;65084;42.196;25.326;2023-05-10T02:40:17;7.05;;;5.45;;
34805;SDS011;65084;42.196;25.326;2023-05-10T02:42:44;6.88;;;5.40;;
34805;SDS011;65084;42.196;25.326;2023-05-10T02:45:14;6.10;;;5.55;;
34805;SDS011;65084;42.196;25.326;2023-05-10T02:47:42;10.55;;;5.30;;
34805;SDS011;65084;42.196;25.326;2023-05-10T02:50:10;10.43;;;5.07;;
34805;SDS011;65084;42.196;25.326;2023-05-10T02:52:39;6.43;;;5.22;;
34805;SDS011;65084;42.196;25.326;2023-05-10T02:55:08;9.80;;;5.22;;
34805;SDS011;65084;42.196;25.326;2023-05-10T02:57:38;6.03;;;4.85;;
34805;SDS011;65084;42.196;25.326;2023-05-10T03:00:07;9.10;;;5.07;;
34805;SDS011;65084;42.196;25.326;2023-05-10T03:02:34;10.35;;;5.60;;
34805;SDS011;65084;42.196;25.326;2023-05-10T03:05:02;7.95;;;5.22;;
34805;SDS011;65084;42.196;25.326;2023-05-10T03:07:29;6.65;;;4.82;;
34805;SDS011;65084;42.196;25.326;2023-05-10T03:09:56;7.75;;;4.40;;
34805;SDS011;65084;42.196;25.326;2023-05-10T03:12:27;6.68;;;4.60;;
34805;SDS011;65084;42.196;25.326;2023-05-10T03:15:03;11.07;;;5.55;;
34805;SDS011;65084;42.196;25.326;2023-05-10T03:17:35;9.68;;;5.05;;
34805;SDS011;65084;42.196;25.326;2023-05-10T03:20:03;8.80;;;4.90;;
34805;SDS011;65084;42.196;25.326;2023-05-10T03:22:32;7.68;;;4.85;;
34805;SDS011;65084;42.196;25.326;2023-05-10T03:25:02;10.73;;;4.50;;
34805;SDS011;65084;42.196;25.326;2023-05-10T03:27:30;6.78;;;4.43;;
34805;SDS011;65084;42.196;25.326;2023-05-10T03:29:58;18.75;;;5.20;;
34805;SDS011;65084;42.196;25.326;2023-05-10T03:32:27;16.35;;;4.95;;
34805;SDS011;65084;42.196;25.326;2023-05-10T03:34:57;11.23;;;5.20;;
34805;SDS011;65084;42.196;25.326;2023-05-10T03:37:24;5.32;;;4.30;;
34805;SDS011;65084;42.196;25.326;2023-05-10T03:39:51;6.13;;;4.50;;
34805;SDS011;65084;42.196;25.326;2023-05-10T03:42:18;6.88;;;4.82;;
34805;SDS011;65084;42.196;25.326;2023-05-10T03:44:46;7.63;;;4.07;;
34805;SDS011;65084;42.196;25.326;2023-05-10T03:47:14;11.60;;;4.93;;
34805;SDS011;65084;42.196;25.326;2023-05-10T03:49:43;5.15;;;4.65;;
34805;SDS011;65084;42.196;25.326;2023-05-10T03:52:10;8.82;;;4.63;;
34805;SDS011;65084;42.196;25.326;2023-05-10T03:54:38;5.60;;;5.10;;
34805;SDS011;65084;42.196;25.326;2023-05-10T03:57:05;5.00;;;4.45;;
34805;SDS011;65084;42.196;25.326;2023-05-10T03:59:32;9.55;;;4.80;;
34805;SDS011;65084;42.196;25.326;2023-05-10T04:01:59;5.53;;;4.57;;
34805;SDS011;65084;42.196;25.326;2023-05-10T04:04:27;9.63;;;4.63;;
34805;SDS011;65084;42.196;25.326;2023-05-10T04:06:56;12.05;;;5.80;;
34805;SDS011;65084;42.196;25.326;2023-05-10T04:09:23;11.85;;;5.65;;
34805;SDS011;65084;42.196;25.326;2023-05-10T04:11:51;7.22;;;4.70;;
34805;SDS011;65084;42.196;25.326;2023-05-10T04:14:18;10.18;;;5.03;;
34805;SDS011;65084;42.196;25.326;2023-05-10T04:16:45;7.78;;;5.45;;
34805;SDS011;65084;42.196;25.326;2023-05-10T04:19:12;7.63;;;5.55;;
34805;SDS011;65084;42.196;25.326;2023-05-10T04:21:40;8.35;;;5.50;;
34805;SDS011;65084;42.196;25.326;2023-05-10T04:24:08;7.35;;;4.93;;
34805;SDS011;65084;42.196;25.326;2023-05-10T04:26:36;13.93;;;6.47;;
34805;SDS011;65084;42.196;25.326;2023-05-10T04:29:03;8.43;;;6.55;;
34805;SDS011;65084;42.196;25.326;2023-05-10T04:31:30;7.07;;;6.38;;
34805;SDS011;65084;42.196;25.326;2023-05-10T04:33:57;10.73;;;6.50;;
34805;SDS011;65084;42.196;25.326;2023-05-10T04:36:25;7.18;;;4.60;;
34805;SDS011;65084;42.196;25.326;2023-05-10T04:38:52;7.60;;;4.82;;
34805;SDS011;65084;42.196;25.326;2023-05-10T04:41:21;6.03;;;4.50;;
34805;SDS011;65084;42.196;25.326;2023-05-10T04:43:49;7.53;;;4.43;;
34805;SDS011;65084;42.196;25.326;2023-05-10T04:46:16;5.65;;;4.40;;
34805;SDS011;65084;42.196;25.326;2023-05-10T04:48:43;7.03;;;4.85;;
34805;SDS011;65084;42.196;25.326;2023-05-10T04:51:11;8.10;;;3.78;;
34805;SDS011;65084;42.196;25.326;2023-05-10T04:53:38;12.18;;;5.22;;
34805;SDS011;65084;42.196;25.326;2023-05-10T04:56:05;7.00;;;4.95;;
34805;SDS011;65084;42.196;25.326;2023-05-10T04:58:34;9.20;;;4.38;;
34805;SDS011;65084;42.196;25.326;2023-05-10T05:01:05;6.60;;;4.68;;
34805;SDS011;65084;42.196;25.326;2023-05-10T05:03:33;6.65;;;4.28;;
34805;SDS011;65084;42.196;25.326;2023-05-10T05:06:00;5.85;;;4.38;;
34805;SDS011;65084;42.196;25.326;2023-05-10T05:08:27;6.90;;;4.28;;
34805;SDS011;65084;42.196;25.326;2023-05-10T05:10:55;6.82;;;4.85;;
34805;SDS011;65084;42.196;25.326;2023-05-10T05:13:22;8.77;;;4.18;;
34805;SDS011;65084;42.196;25.326;2023-05-10T05:15:51;5.03;;;3.72;;
34805;SDS011;65084;42.196;25.326;2023-05-10T05:18:18;7.78;;;4.25;;
34805;SDS011;65084;42.196;25.326;2023-05-10T05:20:45;5.93;;;4.03;;
34805;SDS011;65084;42.196;25.326;2023-05-10T05:23:13;6.15;;;4.10;;
34805;SDS011;65084;42.196;25.326;2023-05-10T05:25:40;7.70;;;4.60;;
34805;SDS011;65084;42.196;25.326;2023-05-10T05:28:07;8.00;;;3.90;;
34805;SDS011;65084;42.196;25.326;2023-05-10T05:30:34;6.55;;;4.18;;
34805;SDS011;65084;42.196;25.326;2023-05-10T05:33:03;10.23;;;4.90;;
34805;SDS011;65084;42.196;25.326;2023-05-10T05:35:31;8.45;;;4.47;;
34805;SDS011;65084;42.196;25.326;2023-05-10T05:37:58;5.35;;;3.85;;
34805;SDS011;65084;42.196;25.326;2023-05-10T05:40:26;6.13;;;4.43;;
34805;SDS011;65084;42.196;25.326;2023-05-10T05:42:53;4.03;;;3.67;;
34805;SDS011;65084;42.196;25.326;2023-05-10T05:45:20;5.00;;;3.90;;
34805;SDS011;65084;42.196;25.326;2023-05-10T05:47:47;6.10;;;4.07;;
34805;SDS011;65084;42.196;25.326;2023-05-10T05:50:16;6.60;;;3.92;;
34805;SDS011;65084;42.196;25.326;2023-05-10T05:52:44;6.00;;;4.05;;
34805;SDS011;65084;42.196;25.326;2023-05-10T05:55:11;4.50;;;3.53;;
34805;SDS011;65084;42.196;25.326;2023-05-10T05:57:38;7.72;;;3.67;;
34805;SDS011;65084;42.196;25.326;2023-05-10T06:00:06;6.38;;;4.00;;
34805;SDS011;65084;42.196;25.326;2023-05-10T06:02:34;6.40;;;4.13;;
34805;SDS011;65084;42.196;25.326;2023-05-10T06:05:01;4.95;;;3.85;;
34805;SDS011;65084;42.196;25.326;2023-05-10T06:07:30;5.68;;;4.10;;
34805;SDS011;65084;42.196;25.326;2023-05-10T06:09:57;9.07;;;4.60;;
34805;SDS011;65084;42.196;25.326;2023-05-10T06:12:25;10.60;;;5.03;;
34805;SDS011;65084;42.196;25.326;2023-05-10T06:14:52;10.52;;;4.18;;
34805;SDS011;65084;42.196;25.326;2023-05-10T06:17:19;6.57;;;4.00;;
34805;SDS011;65084;42.196;25.326;2023-05-10T06:19:47;17.85;;;5.82;;
34805;SDS011;65084;42.196;25.326;2023-05-10T06:22:15;6.88;;;4.72;;
34805;SDS011;65084;42.196;25.326;2023-05-10T06:24:43;7.57;;;4.53;;
34805;SDS011;65084;42.196;25.326;2023-05-10T06:27:10;5.93;;;3.60;;
34805;SDS011;65084;42.196;25.326;2023-05-10T06:29:38;4.57;;;3.42;;
34805;SDS011;65084;42.196;25.326;2023-05-10T06:32:05;4.15;;;3.65;;
34805;SDS011;65084;42.196;25.326;2023-05-10T06:34:32;9.00;;;4.50;;
34805;SDS011;65084;42.196;25.326;2023-05-10T06:36:59;5.28;;;4.00;;
34805;SDS011;65084;42.196;25.326;2023-05-10T06:39:28;12.88;;;4.25;;
34805;SDS011;65084;42.196;25.326;2023-05-10T06:41:57;4.43;;;3.70;;
34805;SDS011;65084;42.196;25.326;2023-05-10T06:44:24;9.18;;;3.80;;
34805;SDS011;65084;42.196;25.326;2023-05-10T06:46:51;9.13;;;3.85;;
34805;SDS011;65084;42.196;25.326;2023-05-10T06:49:20;4.07;;;3.20;;
34805;SDS011;65084;42.196;25.326;2023-05-10T06:51:48;6.57;;;3.60;;
34805;SDS011;65084;42.196;25.326;2023-05-10T06:54:16;4.78;;;3.47;;
34805;SDS011;65084;42.196;25.326;2023-05-10T06:56:43;6.28;;;4.60;;
34805;SDS011;65084;42.196;25.326;2023-05-10T06:59:11;7.63;;;3.95;;
34805;SDS011;65084;42.196;25.326;2023-05-10T07:01:40;5.32;;;4.32;;
34805;SDS011;65084;42.196;25.326;2023-05-10T07:04:07;4.22;;;3.78;;
34805;SDS011;65084;42.196;25.326;2023-05-10T07:06:34;8.98;;;4.55;;
34805;SDS011;65084;42.196;25.326;2023-05-10T07:09:02;5.63;;;3.22;;
34805;SDS011;65084;42.196;25.326;2023-05-10T07:11:29;8.15;;;3.35;;
34805;SDS011;65084;42.196;25.326;2023-05-10T07:13:56;5.82;;;3.38;;
34805;SDS011;65084;42.196;25.326;2023-05-10T07:16:26;3.28;;;3.05;;
34805;SDS011;65084;42.196;25.326;2023-05-10T07:18:53;7.40;;;3.50;;
34805;SDS011;65084;42.196;25.326;2023-05-10T07:21:21;4.05;;;3.60;;
34805;SDS011;65084;42.196;25.326;2023-05-10T07:23:49;3.75;;;3.30;;
34805;SDS011;65084;42.196;25.326;2023-05-10T07:26:16;6.45;;;3.17;;
34805;SDS011;65084;42.196;25.326;2023-05-10T07:28:45;9.35;;;4.53;;
34805;SDS011;65084;42.196;25.326;2023-05-10T07:31:12;8.95;;;3.67;;
34805;SDS011;65084;42.196;25.326;2023-05-10T07:33:41;12.15;;;3.28;;
34805;SDS011;65084;42.196;25.326;2023-05-10T07:36:08;5.47;;;3.42;;
34805;SDS011;65084;42.196;25.326;2023-05-10T07:38:35;7.53;;;3.58;;
34805;SDS011;65084;42.196;25.326;2023-05-10T07:41:02;7.88;;;3.40;;
34805;SDS011;65084;42.196;25.326;2023-05-10T07:43:30;3.80;;;3.33;;
34805;SDS011;65084;42.196;25.326;2023-05-10T07:45:57;11.25;;;3.67;;
34805;SDS011;65084;42.196;25.326;2023-05-10T07:48:24;4.10;;;2.92;;
34805;SDS011;65084;42.196;25.326;2023-05-10T07:50:53;6.38;;;2.95;;
34805;SDS011;65084;42.196;25.326;2023-05-10T07:53:20;2.88;;;2.55;;
34805;SDS011;65084;42.196;25.326;2023-05-10T07:55:49;9.50;;;3.00;;
34805;SDS011;65084;42.196;25.326;2023-05-10T07:58:17;3.20;;;2.70;;
34805;SDS011;65084;42.196;25.326;2023-05-10T08:00:44;7.30;;;2.80;;
34805;SDS011;65084;42.196;25.326;2023-05-10T08:03:11;9.75;;;2.75;;
34805;SDS011;65084;42.196;25.326;2023-05-10T08:05:39;3.10;;;2.88;;
34805;SDS011;65084;42.196;25.326;2023-05-10T08:08:07;7.15;;;2.80;;
34805;SDS011;65084;42.196;25.326;2023-05-10T08:10:35;9.77;;;3.05;;
34805;SDS011;65084;42.196;25.326;2023-05-10T08:13:02;3.05;;;2.75;;
34805;SDS011;65084;42.196;25.326;2023-05-10T08:15:29;7.60;;;3.03;;
34805;SDS011;65084;42.196;25.326;2023-05-10T08:17:56;3.42;;;2.95;;
34805;SDS011;65084;42.196;25.326;2023-05-10T08:20:24;3.10;;;2.80;;
34805;SDS011;65084;42.196;25.326;2023-05-10T08:22:51;5.75;;;3.63;;
34805;SDS011;65084;42.196;25.326;2023-05-10T08:25:20;8.77;;;2.58;;
34805;SDS011;65084;42.196;25.326;2023-05-10T08:27:47;3.47;;;2.95;;
34805;SDS011;65084;42.196;25.326;2023-05-10T08:30:14;6.88;;;3.28;;
34805;SDS011;65084;42.196;25.326;2023-05-10T08:32:42;4.72;;;3.53;;
34805;SDS011;65084;42.196;25.326;2023-05-10T08:35:09;5.40;;;2.70;;
34805;SDS011;65084;42.196;25.326;2023-05-10T08:37:37;6.65;;;3.05;;
34805;SDS011;65084;42.196;25.326;2023-05-10T08:40:04;5.10;;;2.75;;
34805;SDS011;65084;42.196;25.326;2023-05-10T08:42:34;7.47;;;3.00;;
34805;SDS011;65084;42.196;25.326;2023-05-10T08:45:03;7.22;;;3.00;;
34805;SDS011;65084;42.196;25.326;2023-05-10T08:47:31;4.20;;;3.20;;
34805;SDS011;65084;42.196;25.326;2023-05-10T08:49:58;4.13;;;2.92;;
34805;SDS011;65084;42.196;25.326;2023-05-10T08:52:26;2.92;;;2.60;;
34805;SDS011;65084;42.196;25.326;2023-05-10T08:54:55;3.35;;;3.08;;
34805;SDS011;65084;42.196;25.326;2023-05-10T08:57:22;8.50;;;2.50;;
34805;SDS011;65084;42.196;25.326;2023-05-10T08:59:51;4.88;;;2.67;;
34805;SDS011;65084;42.196;25.326;2023-05-10T09:02:18;6.13;;;3.00;;
34805;SDS011;65084;42.196;25.326;2023-05-10T09:04:46;3.42;;;3.05;;
34805;SDS011;65084;42.196;25.326;2023-05-10T09:07:14;4.22;;;2.63;;
34805;SDS011;65084;42.196;25.326;2023-05-10T09:09:41;4.38;;;2.92;;
34805;SDS011;65084;42.196;25.326;2023-05-10T09:12:09;6.22;;;2.80;;
34805;SDS011;65084;42.196;25.326;2023-05-10T09:14:37;6.28;;;2.40;;
34805;SDS011;65084;42.196;25.326;2023-05-10T09:17:06;4.78;;;2.78;;
34805;SDS011;65084;42.196;25.326;2023-05-10T09:19:33;4.35;;;2.53;;
34805;SDS011;65084;42.196;25.326;2023-05-10T09:22:01;3.17;;;2.63;;
34805;SDS011;65084;42.196;25.326;2023-05-10T09:24:29;3.15;;;2.70;;
34805;SDS011;65084;42.196;25.326;2023-05-10T09:26:56;3.63;;;2.67;;
34805;SDS011;65084;42.196;25.326;2023-05-10T09:29:24;4.40;;;3.15;;
34805;SDS011;65084;42.196;25.326;2023-05-10T09:31:51;3.33;;;2.53;;
34805;SDS011;65084;42.196;25.326;2023-05-10T09:34:22;2.35;;;2.15;;
34805;SDS011;65084;42.196;25.326;2023-05-10T09:36:55;5.68;;;2.80;;
34805;SDS011;65084;42.196;25.326;2023-05-10T09:39:29;5.50;;;2.33;;
34805;SDS011;65084;42.196;25.326;2023-05-10T09:41:57;5.07;;;2.83;;
34805;SDS011;65084;42.196;25.326;2023-05-10T09:44:25;4.40;;;2.10;;
34805;SDS011;65084;42.196;25.326;2023-05-10T09:46:53;10.07;;;2.40;;
34805;SDS011;65084;42.196;25.326;2023-05-10T09:49:22;2.78;;;2.58;;
34805;SDS011;65084;42.196;25.326;2023-05-10T09:51:59;6.05;;;2.83;;
34805;SDS011;65084;42.196;25.326;2023-05-10T09:54:26;3.65;;;2.85;;
34805;SDS011;65084;42.196;25.326;2023-05-10T09:56:53;2.47;;;2.28;;
34805;SDS011;65084;42.196;25.326;2023-05-10T09:59:21;2.55;;;2.35;;
34805;SDS011;65084;42.196;25.326;2023-05-10T10:01:51;3.60;;;2.30;;
34805;SDS011;65084;42.196;25.326;2023-05-10T10:04:19;4.40;;;2.55;;
34805;SDS011;65084;42.196;25.326;2023-05-10T10:06:48;4.13;;;2.50;;
34805;SDS011;65084;42.196;25.326;2023-05-10T10:09:25;7.32;;;2.38;;
34805;SDS011;65084;42.196;25.326;2023-05-10T10:11:52;3.65;;;2.00;;
34805;SDS011;65084;42.196;25.326;2023-05-10T10:14:21;2.83;;;2.45;;
34805;SDS011;65084;42.196;25.326;2023-05-10T10:16:49;6.57;;;2.70;;
34805;SDS011;65084;42.196;25.326;2023-05-10T10:19:16;4.03;;;2.10;;
34805;SDS011;65084;42.196;25.326;2023-05-10T10:21:44;6.70;;;2.70;;
34805;SDS011;65084;42.196;25.326;2023-05-10T10:24:12;2.38;;;2.17;;
34805;SDS011;65084;42.196;25.326;2023-05-10T10:26:40;3.85;;;2.25;;
34805;SDS011;65084;42.196;25.326;2023-05-10T10:29:11;6.38;;;3.20;;
34805;SDS011;65084;42.196;25.326;2023-05-10T10:31:40;6.30;;;2.90;;
34805;SDS011;65084;42.196;25.326;2023-05-10T10:34:09;4.97;;;2.35;;
34805;SDS011;65084;42.196;25.326;2023-05-10T10:36:42;5.18;;;2.28;;
34805;SDS011;65084;42.196;25.326;2023-05-10T10:39:10;2.30;;;2.10;;
34805;SDS011;65084;42.196;25.326;2023-05-10T10:41:40;9.77;;;2.90;;
34805;SDS011;65084;42.196;25.326;2023-05-10T10:47:08;5.18;;;2.55;;
34805;SDS011;65084;42.196;25.326;2023-05-10T10:49:43;4.07;;;2.35;;
34805;SDS011;65084;42.196;25.326;2023-05-10T10:52:14;3.03;;;2.70;;
34805;SDS011;65084;42.196;25.326;2023-05-10T10:54:47;3.92;;;2.67;;
34805;SDS011;65084;42.196;25.326;2023-05-10T10:57:18;3.53;;;2.60;;
34805;SDS011;65084;42.196;25.326;2023-05-10T10:59:46;5.72;;;2.40;;
34805;SDS011;65084;42.196;25.326;2023-05-10T11:02:33;4.43;;;2.38;;
34805;SDS011;65084;42.196;25.326;2023-05-10T11:05:09;3.85;;;2.63;;
34805;SDS011;65084;42.196;25.326;2023-05-10T11:07:53;2.65;;;2.45;;
34805;SDS011;65084;42.196;25.326;2023-05-10T11:10:20;5.93;;;2.58;;
34805;SDS011;65084;42.196;25.326;2023-05-10T11:12:52;3.13;;;2.50;;
34805;SDS011;65084;42.196;25.326;2023-05-10T11:15:27;3.17;;;2.88;;
34805;SDS011;65084;42.196;25.326;2023-05-10T11:17:55;2.20;;;2.00;;
34805;SDS011;65084;42.196;25.326;2023-05-10T11:20:23;4.78;;;3.10;;
34805;SDS011;65084;42.196;25.326;2023-05-10T11:22:54;6.20;;;2.78;;
34805;SDS011;65084;42.196;25.326;2023-05-10T11:25:26;3.67;;;2.55;;
34805;SDS011;65084;42.196;25.326;2023-05-10T11:27:54;4.68;;;3.35;;
34805;SDS011;65084;42.196;25.326;2023-05-10T11:30:22;10.35;;;3.00;;
34805;SDS011;65084;42.196;25.326;2023-05-10T11:32:49;2.60;;;2.40;;
34805;SDS011;65084;42.196;25.326;2023-05-10T11:35:17;7.95;;;3.88;;
34805;SDS011;65084;42.196;25.326;2023-05-10T11:37:44;2.60;;;2.40;;
34805;SDS011;65084;42.196;25.326;2023-05-10T11:40:14;4.45;;;2.50;;
34805;SDS011;65084;42.196;25.326;2023-05-10T11:42:42;3.08;;;2.30;;
34805;SDS011;65084;42.196;25.326;2023-05-10T11:45:11;3.20;;;2.58;;
34805;SDS011;65084;42.196;25.326;2023-05-10T11:47:38;3.05;;;2.30;;
34805;SDS011;65084;42.196;25.326;2023-05-10T11:50:07;6.30;;;2.45;;
34805;SDS011;65084;42.196;25.326;2023-05-10T11:52:35;5.88;;;2.22;;
34805;SDS011;65084;42.196;25.326;2023-05-10T11:55:03;2.13;;;1.95;;
34805;SDS011;65084;42.196;25.326;2023-05-10T11:57:30;2.85;;;2.15;;
34805;SDS011;65084;42.196;25.326;2023-05-10T11:59:58;2.00;;;1.85;;
34805;SDS011;65084;42.196;25.326;2023-05-10T12:02:26;3.47;;;2.15;;
34805;SDS011;65084;42.196;25.326;2023-05-10T12:04:54;4.80;;;2.60;;
34805;SDS011;65084;42.196;25.326;2023-05-10T12:07:22;4.53;;;2.20;;
34805;SDS011;65084;42.196;25.326;2023-05-10T12:10:05;2.58;;;2.20;;
34805;SDS011;65084;42.196;25.326;2023-05-10T12:12:39;5.35;;;2.55;;
34805;SDS011;65084;42.196;25.326;2023-05-10T12:15:10;2.22;;;2.05;;
34805;SDS011;65084;42.196;25.326;2023-05-10T12:17:39;2.63;;;1.90;;
34805;SDS011;65084;42.196;25.326;2023-05-10T12:20:12;3.60;;;1.88;;
34805;SDS011;65084;42.196;25.326;2023-05-10T12:22:40;2.83;;;2.08;;
34805;SDS011;65084;42.196;25.326;2023-05-10T12:25:08;2.63;;;2.08;;
34805;SDS011;65084;42.196;25.326;2023-05-10T12:27:36;2.13;;;2.00;;
34805;SDS011;65084;42.196;25.326;2023-05-10T12:30:03;4.93;;;1.73;;
34805;SDS011;65084;42.196;25.326;2023-05-10T12:32:39;2.72;;;2.00;;
34805;SDS011;65084;42.196;25.326;2023-05-10T12:35:06;2.00;;;1.70;;
34805;SDS011;65084;42.196;25.326;2023-05-10T12:37:35;4.50;;;2.05;;
34805;SDS011;65084;42.196;25.326;2023-05-10T12:40:05;1.90;;;1.80;;
34805;SDS011;65084;42.196;25.326;2023-05-10T12:42:34;2.10;;;1.90;;
34805;SDS011;65084;42.196;25.326;2023-05-10T12:45:02;2.67;;;2.05;;
34805;SDS011;65084;42.196;25.326;2023-05-10T12:47:30;4.43;;;1.95;;
34805;SDS011;65084;42.196;25.326;2023-05-10T12:49:59;4.05;;;1.77;;
34805;SDS011;65084;42.196;25.326;2023-05-10T12:52:27;4.07;;;2.30;;
34805;SDS011;65084;42.196;25.326;2023-05-10T12:54:55;2.25;;;1.98;;
34805;SDS011;65084;42.196;25.326;2023-05-10T12:57:22;2.00;;;1.90;;
34805;SDS011;65084;42.196;25.326;2023-05-10T12:59:49;2.88;;;1.63;;
34805;SDS011;65084;42.196;25.326;2023-05-10T13:02:16;7.45;;;2.10;;
34805;SDS011;65084;42.196;25.326;2023-05-10T13:04:45;4.95;;;1.77;;
34805;SDS011;65084;42.196;25.326;2023-05-10T13:07:13;2.33;;;1.73;;
34805;SDS011;65084;42.196;25.326;2023-05-10T13:09:41;5.70;;;1.80;;
34805;SDS011;65084;42.196;25.326;2023-05-10T13:12:08;5.22;;;1.67;;
34805;SDS011;65084;42.196;25.326;2023-05-10T13:14:35;2.58;;;1.65;;
34805;SDS011;65084;42.196;25.326;2023-05-10T13:17:12;2.13;;;1.45;;
34805;SDS011;65084;42.196;25.326;2023-05-10T13:19:39;1.58;;;1.48;;
34805;SDS011;65084;42.196;25.326;2023-05-10T13:22:06;2.63;;;1.80;;
34805;SDS011;65084;42.196;25.326;2023-05-10T13:24:35;4.22;;;1.60;;
34805;SDS011;65084;42.196;25.326;2023-05-10T13:27:02;1.92;;;1.60;;
34805;SDS011;65084;42.196;25.326;2023-05-10T13:29:30;3.38;;;1.55;;
34805;SDS011;65084;42.196;25.326;2023-05-10T13:31:57;1.55;;;1.45;;
34805;SDS011;65084;42.196;25.326;2023-05-10T13:34:24;5.90;;;1.88;;
34805;SDS011;65084;42.196;25.326;2023-05-10T13:36:52;1.95;;;1.73;;
34805;SDS011;65084;42.196;25.326;2023-05-10T13:39:21;2.30;;;1.70;;
34805;SDS011;65084;42.196;25.326;2023-05-10T13:41:50;2.20;;;2.00;;
34805;SDS011;65084;42.196;25.326;2023-05-10T13:44:17;10.50;;;2.00;;
34805;SDS011;65084;42.196;25.326;2023-05-10T13:46:44;2.40;;;1.60;;
34805;SDS011;65084;42.196;25.326;2023-05-10T13:49:11;3.28;;;1.50;;
34805;SDS011;65084;42.196;25.326;2023-05-10T13:51:39;1.70;;;1.60;;
34805;SDS011;65084;42.196;25.326;2023-05-10T13:54:06;5.07;;;1.73;;
34805;SDS011;65084;42.196;25.326;2023-05-10T13:56:33;2.85;;;1.90;;
34805;SDS011;65084;42.196;25.326;2023-05-10T13:59:02;1.73;;;1.35;;
34805;SDS011;65084;42.196;25.326;2023-05-10T14:01:29;4.03;;;1.98;;
34805;SDS011;65084;42.196;25.326;2023-05-10T14:03:57;1.73;;;1.60;;
34805;SDS011;65084;42.196;25.326;2023-05-10T14:06:24;3.97;;;2.20;;
34805;SDS011;65084;42.196;25.326;2023-05-10T14:08:52;1.45;;;1.35;;
34805;SDS011;65084;42.196;25.326;2023-05-10T14:11:19;2.30;;;1.70;;
34805;SDS011;65084;42.196;25.326;2023-05-10T14:13:47;6.63;;;1.88;;
34805;SDS011;65084;42.196;25.326;2023-05-10T14:16:15;3.35;;;1.85;;
34805;SDS011;65084;42.196;25.326;2023-05-10T14:18:43;3.13;;;1.67;;
34805;SDS011;65084;42.196;25.326;2023-05-10T14:21:10;5.35;;;1.60;;
34805;SDS011;65084;42.196;25.326;2023-05-10T14:23:37;6.10;;;2.00;;
34805;SDS011;65084;42.196;25.326;2023-05-10T14:26:05;6.40;;;1.83;;
34805;SDS011;65084;42.196;25.326;2023-05-10T14:28:32;3.67;;;1.67;;
34805;SDS011;65084;42.196;25.326;2023-05-10T14:31:00;3.22;;;2.10;;
34805;SDS011;65084;42.196;25.326;2023-05-10T14:33:28;7.00;;;1.88;;
34805;SDS011;65084;42.196;25.326;2023-05-10T14:35:56;4.32;;;2.00;;
34805;SDS011;65084;42.196;25.326;2023-05-10T14:38:24;3.42;;;1.60;;
34805;SDS011;65084;42.196;25.326;2023-05-10T14:40:51;3.17;;;1.80;;
34805;SDS011;65084;42.196;25.326;2023-05-10T14:43:19;7.70;;;2.13;;
34805;SDS011;65084;42.196;25.326;2023-05-10T14:45:46;3.03;;;1.80;;